Time;durP1;ratioP1;P1;durP2;ratioP2;P2;SDS_P1;SDS_P2;PMS_P1;PMS_P2;Temp;Humidity;BMP_temperature;BMP_pressure;BME280_temperature;BME280_humidity;BME280_pressure;Samples;Min_cycle;Max_cycle;Signal;HPM_P1;HPM_P2
2023/08/13 00:02:00;;;;;;;;;;;;;;;21.28;64.12;95541.53;5137818;27;1139;-57
2023/08/13 00:04:26;;;;;;;;;;;;;;;21.48;62.82;95546.91;5137595;27;951;-56
2023/08/13 00:06:52;;;;;;;;;;;;;;;21.57;61.85;95551.03;5137815;27;1055;-57
2023/08/13 00:09:18;;;;;;;;;;;;;;;21.60;62.95;95547.03;5137471;27;1036;-57
2023/08/13 00:11:44;;;;;;;;;;;;;;;21.61;61.65;95545.97;5137401;27;1003;-57
2023/08/13 00:14:10;;;;;;;;;;;;;;;21.63;61.57;95546.59;5137250;27;1216;-57
2023/08/13 00:16:35;;;;;;;;;;;;;;;21.64;63.49;95543.66;5137007;27;1131;-56
2023/08/13 00:19:01;;;;;;;;;;;;;;;21.59;62.47;95543.47;5136567;27;1905;-56
2023/08/13 00:21:27;;;;;;;;;;;;;;;21.67;61.87;95547.00;5116570;28;1652;-57
2023/08/13 00:23:53;;;;;;;;;;;;;;;21.76;59.98;95553.81;5116905;28;1030;-56
2023/08/13 00:26:19;;;;;;;;;;;;;;;21.74;59.95;95551.31;5116701;28;1033;-57
2023/08/13 00:28:45;;;;;;;;;;;;;;;21.77;59.48;95552.75;5116779;28;1037;-57
2023/08/13 00:31:11;;;;;;;;;;;;;;;21.75;59.95;95552.16;5116688;28;958;-56
2023/08/13 00:33:37;;;;;;;;;;;;;;;21.76;59.90;95556.53;5116585;28;966;-57
2023/08/13 00:36:03;;;;;;;;;;;;;;;21.66;59.37;95548.84;5116537;28;1045;-57
2023/08/13 00:38:29;;;;;;;;;;;;;;;21.64;59.90;95553.69;5098986;28;1914;-56
2023/08/13 00:40:55;;;;;;;;;;;;;;;21.72;59.46;95555.31;5095834;28;1139;-56
2023/08/13 00:43:21;;;;;;;;;;;;;;;21.69;59.31;95558.47;5077881;28;1650;-57
2023/08/13 00:45:47;;;;;;;;;;;;;;;21.67;59.98;95568.75;5095776;28;1095;-56
2023/08/13 00:48:13;;;;;;;;;;;;;;;21.61;60.85;95565.03;5096025;28;1198;-56
2023/08/13 00:50:40;;;;;;;;;;;;;;;21.57;60.23;95561.91;5095787;28;1012;-57
2023/08/13 00:53:06;;;;;;;;;;;;;;;21.52;60.83;95556.28;5095581;28;1087;-57
2023/08/13 00:55:33;;;;;;;;;;;;;;;21.50;60.39;95555.69;5095782;28;993;-56
2023/08/13 00:57:59;;;;;;;;;;;;;;;21.60;59.50;95569.63;5095466;28;1906;-57
2023/08/13 01:00:26;;;;;;;;;;;;;;;21.63;59.52;95561.03;5095668;28;984;-57
2023/08/13 01:02:52;;;;;;;;;;;;;;;21.65;59.78;95566.25;5095440;28;1036;-57
2023/08/13 01:05:20;;;;;;;;;;;;;;;21.62;60.38;95556.63;5095444;28;1044;-56
2023/08/13 01:08:09;;;;;;;;;;;;;;;21.55;62.03;95558.59;5095095;28;1007;-57
2023/08/13 01:10:35;;;;;;;;;;;;;;;21.38;61.12;95557.38;5084595;28;1324;-57
2023/08/13 01:13:01;;;;;;;;;;;;;;;21.45;60.56;95553.59;5095274;28;1056;-57
2023/08/13 01:15:31;;;;;;;;;;;;;;;21.51;60.33;95551.06;5095355;28;1032;-57
2023/08/13 01:17:58;;;;;;;;;;;;;;;21.50;60.17;95552.97;5095375;28;1909;-57
2023/08/13 01:20:28;;;;;;;;;;;;;;;21.44;60.83;95548.41;5107371;28;1687;-57
2023/08/13 01:22:54;;;;;;;;;;;;;;;21.31;61.74;95549.28;5115507;28;973;-57
2023/08/13 01:25:21;;;;;;;;;;;;;;;21.07;64.73;95553.59;5119633;27;2820;-57
2023/08/13 01:28:08;;;;;;;;;;;;;;;20.84;64.76;95557.66;5135843;27;1095;-57
2023/08/13 01:30:41;;;;;;;;;;;;;;;20.87;64.65;95550.97;5135622;27;1040;-57
2023/08/13 01:33:08;;;;;;;;;;;;;;;20.80;65.47;95545.56;5135899;27;945;-57
2023/08/13 01:35:35;;;;;;;;;;;;;;;20.81;65.51;95551.81;5136020;27;1046;-57
2023/08/13 01:38:02;;;;;;;;;;;;;;;20.86;64.20;95550.13;5148727;27;1917;-56
2023/08/13 01:40:28;;;;;;;;;;;;;;;20.93;63.85;95547.41;5156428;27;1015;-57
2023/08/13 01:42:55;;;;;;;;;;;;;;;20.99;63.01;95557.38;5156551;27;1037;-57
2023/08/13 01:45:21;;;;;;;;;;;;;;;20.97;63.52;95555.94;5156189;27;1031;-57
2023/08/13 01:47:48;;;;;;;;;;;;;;;20.92;64.72;95558.47;5156307;27;1055;-57
2023/08/13 01:50:14;;;;;;;;;;;;;;;20.97;62.43;95555.94;5156053;27;1123;-57
2023/08/13 01:52:39;;;;;;;;;;;;;;;21.06;62.08;95557.38;5156387;27;1051;-57
2023/08/13 01:55:06;;;;;;;;;;;;;;;21.06;62.57;95555.47;5156368;27;965;-57
2023/08/13 01:57:32;;;;;;;;;;;;;;;21.10;62.08;95557.78;5155862;27;1905;-57
2023/08/13 01:59:58;;;;;;;;;;;;;;;21.11;62.20;95554.81;5156281;27;1039;-56
2023/08/13 02:02:24;;;;;;;;;;;;;;;21.12;62.57;95548.34;5155856;27;1036;-57
2023/08/13 02:04:50;;;;;;;;;;;;;;;21.19;61.53;95549.16;5155736;27;1028;-56
2023/08/13 02:07:16;;;;;;;;;;;;;;;21.16;61.23;95551.47;5156145;27;1039;-56
2023/08/13 02:09:42;;;;;;;;;;;;;;;21.22;60.41;95553.31;5155802;27;1023;-56
2023/08/13 02:12:08;;;;;;;;;;;;;;;21.24;60.63;95543.88;5155893;27;1031;-56
2023/08/13 02:14:33;;;;;;;;;;;;;;;21.22;60.49;95540.53;5155849;27;1035;-56
2023/08/13 02:16:59;;;;;;;;;;;;;;;21.26;60.33;95541.75;5155700;27;968;-56
2023/08/13 02:19:25;;;;;;;;;;;;;;;21.22;61.39;95543.25;5150452;27;1982;-56
2023/08/13 02:21:51;;;;;;;;;;;;;;;21.12;62.73;95537.47;5135173;27;1039;-56
2023/08/13 02:24:17;;;;;;;;;;;;;;;21.14;61.65;95539.97;5123509;27;2447;-56
2023/08/13 02:26:43;;;;;;;;;;;;;;;20.99;63.64;95542.97;5114450;28;1060;-56
2023/08/13 02:29:09;;;;;;;;;;;;;;;20.91;63.79;95538.63;5125357;27;2563;-57
2023/08/13 02:31:35;;;;;;;;;;;;;;;20.92;64.74;95534.00;5134799;27;1040;-57
2023/08/13 02:34:01;;;;;;;;;;;;;;;20.96;64.87;95538.81;5134689;27;977;-57
2023/08/13 02:36:27;;;;;;;;;;;;;;;20.96;63.39;95548.84;5134881;27;1056;-57
2023/08/13 02:38:53;;;;;;;;;;;;;;;21.00;64.72;95555.50;5134424;27;1970;-57
2023/08/13 02:41:20;;;;;;;;;;;;;;;20.81;65.37;95547.25;5134885;27;1064;-57
2023/08/13 02:43:49;;;;;;;;;;;;;;;20.79;64.28;95546.63;5134638;27;1080;-57
2023/08/13 02:46:15;;;;;;;;;;;;;;;20.85;63.38;95553.91;5134367;27;1478;-56
2023/08/13 02:48:41;;;;;;;;;;;;;;;20.90;63.69;95555.13;5134679;27;982;-57
2023/08/13 02:51:07;;;;;;;;;;;;;;;20.90;63.74;95561.41;5134747;27;1013;-56
2023/08/13 02:53:33;;;;;;;;;;;;;;;20.91;64.30;95556.81;5118315;27;2500;-57
2023/08/13 02:55:59;;;;;;;;;;;;;;;20.83;64.01;95561.44;5114132;28;972;-57
2023/08/13 02:58:25;;;;;;;;;;;;;;;20.85;64.32;95559.34;5113954;28;1914;-57
2023/08/13 03:00:51;;;;;;;;;;;;;;;20.72;63.89;95561.28;5113802;28;1004;-57
2023/08/13 03:03:17;;;;;;;;;;;;;;;20.58;65.27;95557.72;5113652;28;1044;-57
2023/08/13 03:05:43;;;;;;;;;;;;;;;20.63;65.76;95561.50;5114059;28;984;-57
2023/08/13 03:08:09;;;;;;;;;;;;;;;20.70;64.02;95566.94;5113929;28;1056;-57
2023/08/13 03:10:35;;;;;;;;;;;;;;;20.72;63.59;95564.00;5114044;28;1122;-56
2023/08/13 03:13:01;;;;;;;;;;;;;;;20.69;64.82;95559.81;5113854;28;961;-56
2023/08/13 03:15:27;;;;;;;;;;;;;;;20.53;65.86;95565.69;5113927;28;973;-57
2023/08/13 03:17:53;;;;;;;;;;;;;;;20.27;71.12;95562.81;5113881;28;1906;-56
2023/08/13 03:20:19;;;;;;;;;;;;;;;20.08;71.90;95559.09;5125902;28;1331;-56
2023/08/13 03:22:45;;;;;;;;;;;;;;;19.96;72.53;95568.09;5133540;28;2668;-56
2023/08/13 03:25:11;;;;;;;;;;;;;;;19.80;71.81;95569.31;5133655;27;2866;-57
2023/08/13 03:27:37;;;;;;;;;;;;;;;19.53;74.83;95568.44;5134367;28;1015;-57
2023/08/13 03:30:03;;;;;;;;;;;;;;;19.45;73.93;95569.50;5134346;28;968;-57
2023/08/13 03:32:29;;;;;;;;;;;;;;;19.34;75.59;95568.22;5137528;27;1977;-57
2023/08/13 03:34:55;;;;;;;;;;;;;;;19.20;77.23;95575.47;5138095;27;1032;-58
2023/08/13 03:37:21;;;;;;;;;;;;;;;18.95;79.25;95579.75;5130625;27;1997;-57
2023/08/13 03:39:47;;;;;;;;;;;;;;;18.98;79.45;95579.38;5117721;28;961;-55
2023/08/13 03:42:13;;;;;;;;;;;;;;;18.98;79.29;95573.97;5116358;28;2495;-56
2023/08/13 03:44:40;;;;;;;;;;;;;;;19.07;78.82;95564.59;5117361;28;1041;-56
2023/08/13 03:47:06;;;;;;;;;;;;;;;19.08;78.33;95569.84;5117194;28;1044;-56
2023/08/13 03:49:32;;;;;;;;;;;;;;;18.99;79.29;95575.59;5117488;28;988;-58
2023/08/13 03:51:58;;;;;;;;;;;;;;;19.00;78.98;95566.44;5117384;28;1024;-59
2023/08/13 03:54:24;;;;;;;;;;;;;;;18.95;79.31;95566.22;5117092;28;1123;-56
2023/08/13 03:56:50;;;;;;;;;;;;;;;18.86;79.56;95571.00;5117375;28;1036;-57
2023/08/13 03:59:16;;;;;;;;;;;;;;;18.82;79.44;95567.84;5116968;28;1993;-57
2023/08/13 04:01:43;;;;;;;;;;;;;;;18.87;79.11;95572.66;5116967;28;1153;-57
2023/08/13 04:04:08;;;;;;;;;;;;;;;19.01;77.89;95577.09;5117243;28;977;-57
2023/08/13 04:06:34;;;;;;;;;;;;;;;19.17;79.08;95572.34;5117103;28;1262;-59
2023/08/13 04:09:00;;;;;;;;;;;;;;;19.30;78.22;95578.63;5117111;28;957;-58
2023/08/13 04:11:27;;;;;;;;;;;;;;;19.53;73.07;95576.59;5117082;28;1069;-58
2023/08/13 04:13:53;;;;;;;;;;;;;;;19.78;72.19;95584.97;5116875;28;1176;-58
2023/08/13 04:16:19;;;;;;;;;;;;;;;19.86;73.88;95579.34;5098685;28;1603;-58
2023/08/13 04:18:45;;;;;;;;;;;;;;;19.88;74.83;95585.38;5116581;28;2009;-58
2023/08/13 04:21:11;;;;;;;;;;;;;;;19.91;75.67;95584.16;5116539;28;1993;-59
2023/08/13 04:23:38;;;;;;;;;;;;;;;20.08;71.01;95586.22;5098640;28;1060;-57
2023/08/13 04:26:04;;;;;;;;;;;;;;;20.27;69.08;95583.72;5098866;28;1165;-58
2023/08/13 04:28:30;;;;;;;;;;;;;;;20.47;67.53;95587.22;5098959;28;1608;-59
2023/08/13 04:30:56;;;;;;;;;;;;;;;20.61;67.13;95587.22;5116798;28;961;-58
2023/08/13 04:33:22;;;;;;;;;;;;;;;20.70;66.57;95594.09;5098477;28;1465;-59
2023/08/13 04:35:51;;;;;;;;;;;;;;;20.79;67.88;95603.69;5116639;28;1122;-57
2023/08/13 04:38:17;;;;;;;;;;;;;;;20.89;66.25;95586.94;5116369;28;1983;-58
2023/08/13 04:40:46;;;;;;;;;;;;;;;21.06;65.56;95593.53;5117070;28;1052;-58
2023/08/13 04:43:12;;;;;;;;;;;;;;;21.17;65.20;95594.75;5115920;28;996;-59
2023/08/13 04:45:38;;;;;;;;;;;;;;;21.26;64.85;95598.88;5116182;28;1075;-59
2023/08/13 04:48:04;;;;;;;;;;;;;;;21.31;63.77;95600.13;5116127;28;1043;-59
2023/08/13 04:50:30;;;;;;;;;;;;;;;21.39;66.96;95602.59;5116005;28;1052;-58
2023/08/13 04:52:56;;;;;;;;;;;;;;;21.39;64.54;95605.31;5098366;28;1066;-58
2023/08/13 04:55:22;;;;;;;;;;;;;;;21.51;62.85;95609.00;5116624;28;1067;-58
2023/08/13 04:57:49;;;;;;;;;;;;;;;21.53;64.04;95609.66;5129845;27;2468;-57
2023/08/13 05:00:15;;;;;;;;;;;;;;;21.67;64.37;95604.13;5136519;27;2100;-57
2023/08/13 05:02:41;;;;;;;;;;;;;;;21.83;63.11;95592.69;5118173;27;909;-57
2023/08/13 05:05:07;;;;;;;;;;;;;;;21.89;64.22;95602.69;5136533;27;2018;-57
2023/08/13 05:07:33;;;;;;;;;;;;;;;21.87;63.50;95602.06;5136528;27;953;-58
2023/08/13 05:09:59;;;;;;;;;;;;;;;21.87;63.38;95599.34;5095786;27;2432;-57
2023/08/13 05:12:25;;;;;;;;;;;;;;;21.87;66.21;95604.81;5136945;27;1050;-57
2023/08/13 05:14:51;;;;;;;;;;;;;;;22.01;67.45;95608.28;5137018;27;1657;-57
2023/08/13 05:17:20;;;;;;;;;;;;;;;22.12;63.54;95610.28;5136549;27;994;-57
2023/08/13 05:19:46;;;;;;;;;;;;;;;22.11;64.02;95608.59;5110811;28;1963;-57
2023/08/13 05:22:13;;;;;;;;;;;;;;;22.13;63.34;95602.94;5115494;28;1039;-57
2023/08/13 05:24:39;;;;;;;;;;;;;;;22.26;63.09;95605.56;5097268;28;1041;-57
2023/08/13 05:27:05;;;;;;;;;;;;;;;22.34;64.07;95609.91;5115400;28;1048;-57
2023/08/13 05:29:31;;;;;;;;;;;;;;;22.45;63.30;95605.63;5115564;28;1056;-57
2023/08/13 05:31:57;;;;;;;;;;;;;;;22.49;61.93;95604.09;5097458;28;966;-57
2023/08/13 05:34:23;;;;;;;;;;;;;;;22.41;62.53;95610.69;5115356;28;1049;-58
2023/08/13 05:36:49;;;;;;;;;;;;;;;22.41;64.13;95608.78;5118089;27;1091;-57
2023/08/13 05:39:15;;;;;;;;;;;;;;;22.49;65.11;95613.09;5135682;27;1906;-57
2023/08/13 05:41:41;;;;;;;;;;;;;;;22.57;62.49;95615.53;5135849;27;1052;-56
2023/08/13 05:44:07;;;;;;;;;;;;;;;22.59;62.30;95612.59;5117385;27;984;-57
2023/08/13 05:46:33;;;;;;;;;;;;;;;22.66;61.95;95613.34;5135645;27;965;-57
2023/08/13 05:48:59;;;;;;;;;;;;;;;22.85;62.34;95618.81;5135648;27;973;-57
2023/08/13 05:51:25;;;;;;;;;;;;;;;23.02;61.39;95617.16;5135352;27;1059;-57
2023/08/13 05:53:51;;;;;;;;;;;;;;;23.09;61.16;95612.50;5135110;27;1060;-57
2023/08/13 05:56:17;;;;;;;;;;;;;;;23.22;61.58;95618.84;5134846;27;1036;-57
2023/08/13 05:58:43;;;;;;;;;;;;;;;23.27;59.46;95610.81;5135277;27;1906;-57
2023/08/13 06:01:10;;;;;;;;;;;;;;;23.33;60.27;95612.59;5139582;27;2543;-58
2023/08/13 06:03:36;;;;;;;;;;;;;;;23.43;60.81;95612.91;5156077;27;1084;-57
2023/08/13 06:06:02;;;;;;;;;;;;;;;23.50;59.67;95619.09;5155861;27;1043;-57
2023/08/13 06:08:28;;;;;;;;;;;;;;;23.52;58.16;95611.53;5155885;27;991;-57
2023/08/13 06:10:54;;;;;;;;;;;;;;;23.53;56.93;95620.53;5155597;27;1126;-57
2023/08/13 06:13:20;;;;;;;;;;;;;;;23.61;58.80;95614.75;5155720;27;1006;-56
2023/08/13 06:15:46;;;;;;;;;;;;;;;23.64;57.96;95619.75;5155580;27;1029;-56
2023/08/13 06:18:12;;;;;;;;;;;;;;;23.78;57.00;95621.25;5140986;27;1906;-56
2023/08/13 06:20:38;;;;;;;;;;;;;;;23.96;58.23;95616.81;5114245;28;1388;-57
2023/08/13 06:23:04;;;;;;;;;;;;;;;24.11;57.85;95624.53;5126603;27;2904;-57
2023/08/13 06:25:30;;;;;;;;;;;;;;;24.26;59.66;95622.16;5134795;27;1032;-56
2023/08/13 06:27:56;;;;;;;;;;;;;;;24.24;58.05;95618.84;5134782;27;1858;-57
2023/08/13 06:30:24;;;;;;;;;;;;;;;24.28;58.81;95620.06;5134823;27;1074;-56
2023/08/13 06:32:50;;;;;;;;;;;;;;;24.39;55.60;95626.59;5134752;27;1151;-57
2023/08/13 06:35:16;;;;;;;;;;;;;;;24.46;55.58;95621.03;5134868;27;1023;-57
2023/08/13 06:37:42;;;;;;;;;;;;;;;24.61;55.60;95617.84;5124096;27;1902;-57
2023/08/13 06:40:08;;;;;;;;;;;;;;;24.72;53.68;95623.31;5114083;28;1059;-57
2023/08/13 06:42:34;;;;;;;;;;;;;;;24.93;54.69;95621.03;5113981;28;977;-57
2023/08/13 06:45:00;;;;;;;;;;;;;;;24.95;54.25;95621.63;5113951;28;1041;-57
2023/08/13 06:47:26;;;;;;;;;;;;;;;24.98;55.54;95629.31;5114139;28;1068;-57
2023/08/13 06:49:52;;;;;;;;;;;;;;;24.99;53.95;95631.00;5114081;28;977;-57
2023/08/13 06:52:18;;;;;;;;;;;;;;;25.07;52.58;95627.06;5113792;28;1020;-57
2023/08/13 06:54:44;;;;;;;;;;;;;;;25.06;54.68;95614.44;5113797;28;1099;-57
2023/08/13 06:57:10;;;;;;;;;;;;;;;25.20;52.46;95624.06;5113758;28;1036;-57
2023/08/13 06:59:36;;;;;;;;;;;;;;;25.29;52.38;95619.09;5113693;28;1991;-57
2023/08/13 07:02:04;;;;;;;;;;;;;;;25.33;51.79;95621.09;5114083;28;963;-57
2023/08/13 07:04:30;;;;;;;;;;;;;;;25.42;51.71;95613.31;5113718;28;1126;-57
2023/08/13 07:06:56;;;;;;;;;;;;;;;25.60;52.61;95608.72;5116720;28;987;-57
2023/08/13 07:09:24;;;;;;;;;;;;;;;25.61;54.24;95605.75;5117888;28;934;-57
2023/08/13 07:11:50;;;;;;;;;;;;;;;25.77;53.19;95614.25;5117878;28;1021;-57
2023/08/13 07:14:16;;;;;;;;;;;;;;;25.94;52.15;95615.16;5118889;27;2855;-57
2023/08/13 07:16:42;;;;;;;;;;;;;;;26.01;54.40;95609.50;5138628;27;981;-57
2023/08/13 07:19:08;;;;;;;;;;;;;;;26.03;52.44;95608.19;5136748;27;1905;-57
2023/08/13 07:21:34;;;;;;;;;;;;;;;26.04;49.96;95609.00;5117939;28;1162;-57
2023/08/13 07:24:00;;;;;;;;;;;;;;;26.19;50.12;95606.53;5099890;28;1033;-57
2023/08/13 07:26:26;;;;;;;;;;;;;;;26.25;49.80;95608.25;5117894;28;1050;-57
2023/08/13 07:28:52;;;;;;;;;;;;;;;26.40;53.10;95607.69;5117586;28;1048;-57
2023/08/13 07:31:19;;;;;;;;;;;;;;;26.55;52.65;95609.84;5116799;28;1028;-56
2023/08/13 07:33:45;;;;;;;;;;;;;;;26.70;52.29;95606.53;5107062;28;2610;-57
2023/08/13 07:36:11;;;;;;;;;;;;;;;26.63;51.89;95605.88;5097242;28;1063;-56
2023/08/13 07:38:37;;;;;;;;;;;;;;;26.82;50.23;95610.00;5114147;28;1988;-57
2023/08/13 07:41:03;;;;;;;;;;;;;;;26.95;48.90;95611.53;5117387;28;970;-57
2023/08/13 07:43:30;;;;;;;;;;;;;;;27.08;48.61;95613.09;5117121;28;992;-57
2023/08/13 07:45:56;;;;;;;;;;;;;;;27.06;48.13;95607.84;5117562;28;1044;-56
2023/08/13 07:48:22;;;;;;;;;;;;;;;27.06;48.68;95607.03;5125412;27;2515;-57
2023/08/13 07:50:50;;;;;;;;;;;;;;;26.92;48.42;95608.47;5138083;27;965;-56
2023/08/13 07:53:16;;;;;;;;;;;;;;;26.93;47.00;95608.22;5137660;27;1091;-57
2023/08/13 07:55:42;;;;;;;;;;;;;;;26.96;49.78;95599.50;5137958;27;984;-56
2023/08/13 07:58:08;;;;;;;;;;;;;;;26.97;47.03;95617.59;5137534;27;1986;-57
2023/08/13 08:00:34;;;;;;;;;;;;;;;27.12;46.36;95607.94;5137739;27;994;-56
2023/08/13 08:03:00;;;;;;;;;;;;;;;27.05;48.51;95599.88;5137553;27;1028;-57
2023/08/13 08:05:26;;;;;;;;;;;;;;;27.09;47.76;95601.06;5137707;27;1023;-57
2023/08/13 08:07:52;;;;;;;;;;;;;;;27.01;48.82;95599.56;5137548;27;1010;-57
2023/08/13 08:10:18;;;;;;;;;;;;;;;27.03;50.07;95591.91;5137602;27;995;-57
2023/08/13 08:12:44;;;;;;;;;;;;;;;27.16;51.19;95581.63;5137607;27;1083;-57
2023/08/13 08:15:10;;;;;;;;;;;;;;;27.45;48.10;95587.75;5137573;27;973;-57
2023/08/13 08:17:37;;;;;;;;;;;;;;;27.48;45.68;95584.53;5136119;27;1994;-57
2023/08/13 08:20:04;;;;;;;;;;;;;;;27.55;46.94;95579.66;5136186;27;2641;-56
2023/08/13 08:22:30;;;;;;;;;;;;;;;27.67;46.31;95578.69;5137151;27;1032;-57
2023/08/13 08:24:56;;;;;;;;;;;;;;;27.83;46.91;95573.09;5137078;27;1090;-57
2023/08/13 08:27:22;;;;;;;;;;;;;;;27.92;49.68;95567.13;5136843;27;2072;-57
2023/08/13 08:29:47;;;;;;;;;;;;;;;27.87;45.37;95576.16;5136938;27;1048;-57
2023/08/13 08:32:13;;;;;;;;;;;;;;;27.77;46.14;95563.13;5136869;27;1194;-57
2023/08/13 08:34:39;;;;;;;;;;;;;;;27.55;47.59;95562.38;5137129;27;1032;-57
2023/08/13 08:37:06;;;;;;;;;;;;;;;27.83;46.68;95570.34;5136900;27;1056;-57
2023/08/13 08:39:31;;;;;;;;;;;;;;;28.01;45.75;95555.41;5136734;27;1902;-57
2023/08/13 08:41:58;;;;;;;;;;;;;;;27.45;44.97;95557.56;5136803;27;1024;-57
2023/08/13 08:44:24;;;;;;;;;;;;;;;26.77;49.30;95552.34;5136733;27;1111;-57
2023/08/13 08:46:51;;;;;;;;;;;;;;;26.31;49.55;95543.41;5136990;27;1047;-57
2023/08/13 08:49:18;;;;;;;;;;;;;;;26.80;50.04;95545.50;5136937;27;1055;-57
2023/08/13 08:51:44;;;;;;;;;;;;;;;27.40;49.95;95544.63;5136771;27;1156;-57
2023/08/13 08:54:10;;;;;;;;;;;;;;;27.48;44.49;95558.97;5136574;27;953;-57
2023/08/13 08:56:37;;;;;;;;;;;;;;;27.61;46.98;95559.41;5136528;27;1102;-57
2023/08/13 08:59:04;;;;;;;;;;;;;;;27.70;45.42;95548.78;5136702;27;1905;-57
2023/08/13 09:01:30;;;;;;;;;;;;;;;27.72;44.13;95559.50;5136616;27;995;-57
2023/08/13 09:03:56;;;;;;;;;;;;;;;27.75;44.27;95537.81;5135529;27;2436;-57
2023/08/13 09:06:22;;;;;;;;;;;;;;;28.00;44.33;95544.66;5136348;27;973;-57
2023/08/13 09:08:48;;;;;;;;;;;;;;;27.98;44.80;95539.47;5136645;27;1003;-56
2023/08/13 09:11:14;;;;;;;;;;;;;;;27.77;45.81;95534.81;5136192;27;1059;-57
2023/08/13 09:13:47;;;;;;;;;;;;;;;27.90;45.70;95539.09;5147364;27;2666;-57
2023/08/13 09:16:13;;;;;;;;;;;;;;;27.96;45.61;95536.13;5156858;27;1039;-57
2023/08/13 09:18:39;;;;;;;;;;;;;;;28.03;46.19;95531.25;5157015;27;1901;-57
2023/08/13 09:21:05;;;;;;;;;;;;;;;28.15;43.77;95524.72;5118960;27;2510;-57
2023/08/13 09:23:31;;;;;;;;;;;;;;;27.97;41.40;95531.47;5136259;27;965;-57
2023/08/13 09:25:59;;;;;;;;;;;;;;;28.02;43.28;95535.09;5136225;27;1036;-56
2023/08/13 09:28:25;;;;;;;;;;;;;;;28.05;45.28;95528.22;5135575;27;1016;-56
2023/08/13 09:30:51;;;;;;;;;;;;;;;28.22;44.59;95531.66;5135967;27;970;-57
2023/08/13 09:33:17;;;;;;;;;;;;;;;28.37;42.44;95530.13;5135793;27;1060;-57
2023/08/13 09:35:44;;;;;;;;;;;;;;;28.47;41.51;95524.69;5135712;27;1123;-57
2023/08/13 09:38:12;;;;;;;;;;;;;;;28.68;41.90;95522.09;5135425;27;1913;-57
2023/08/13 09:40:38;;;;;;;;;;;;;;;28.73;43.56;95522.94;5117696;27;1028;-57
2023/08/13 09:43:06;;;;;;;;;;;;;;;28.61;42.10;95516.84;5134397;27;2903;-57
2023/08/13 09:45:33;;;;;;;;;;;;;;;28.70;44.08;95506.97;5135463;27;1088;-58
2023/08/13 09:48:06;;;;;;;;;;;;;;;28.77;45.79;95512.25;5135097;27;1366;-57
2023/08/13 09:50:39;;;;;;;;;;;;;;;28.80;43.70;95509.78;5135381;27;1090;-58
2023/08/13 09:53:07;;;;;;;;;;;;;;;28.85;44.37;95511.72;5135618;27;1040;-58
2023/08/13 09:55:36;;;;;;;;;;;;;;;28.97;43.72;95523.34;5117041;27;2471;-57
2023/08/13 09:58:04;;;;;;;;;;;;;;;28.85;41.57;95525.47;5145551;27;2508;-58
2023/08/13 10:00:30;;;;;;;;;;;;;;;28.08;43.21;95518.63;5135378;27;1032;-57
2023/08/13 10:02:57;;;;;;;;;;;;;;;27.89;44.85;95512.69;5141445;27;2427;-57
2023/08/13 10:05:23;;;;;;;;;;;;;;;28.23;44.97;95511.34;5155879;27;1121;-57
2023/08/13 10:07:49;;;;;;;;;;;;;;;28.46;43.60;95514.78;5155738;27;1004;-57
2023/08/13 10:10:15;;;;;;;;;;;;;;;28.47;40.47;95524.69;5155680;27;1031;-57
2023/08/13 10:12:41;;;;;;;;;;;;;;;28.83;44.38;95511.16;5155965;27;1044;-56
2023/08/13 10:15:07;;;;;;;;;;;;;;;28.70;42.39;95509.72;5155738;27;1098;-56
2023/08/13 10:17:34;;;;;;;;;;;;;;;28.28;42.74;95509.72;5155569;27;1159;-55
2023/08/13 10:20:00;;;;;;;;;;;;;;;27.92;44.70;95501.19;5146308;27;1976;-56
2023/08/13 10:22:33;;;;;;;;;;;;;;;28.10;42.52;95509.03;5134696;27;1962;-56
2023/08/13 10:25:00;;;;;;;;;;;;;;;28.56;41.52;95505.81;5135104;27;1051;-55
2023/08/13 10:27:26;;;;;;;;;;;;;;;28.56;44.46;95505.81;5134940;27;937;-55
2023/08/13 10:30:05;;;;;;;;;;;;;;;28.40;40.83;95504.84;5134997;27;961;-57
2023/08/13 10:32:31;;;;;;;;;;;;;;;28.57;44.26;95494.53;5134599;27;1036;-56
2023/08/13 10:34:57;;;;;;;;;;;;;;;28.60;41.12;95507.75;5134663;27;1141;-57
2023/08/13 10:37:24;;;;;;;;;;;;;;;28.62;42.41;95502.78;5134433;27;1092;-57
2023/08/13 10:39:52;;;;;;;;;;;;;;;28.35;40.33;95502.06;5134695;27;1906;-56
2023/08/13 10:42:37;;;;;;;;;;;;;;;28.13;38.05;95497.50;5133961;27;1019;-56
2023/08/13 10:45:04;;;;;;;;;;;;;;;28.40;40.33;95493.84;5134625;27;1022;-57
2023/08/13 10:47:40;;;;;;;;;;;;;;;28.53;39.36;95498.06;5141675;27;2526;-57
2023/08/13 10:50:07;;;;;;;;;;;;;;;28.51;39.49;95491.97;5155538;27;1035;-56
2023/08/13 10:52:33;;;;;;;;;;;;;;;28.46;38.79;95484.53;5155182;27;1158;-57
2023/08/13 10:55:00;;;;;;;;;;;;;;;28.50;40.03;95479.34;5136944;27;981;-57
2023/08/13 10:57:29;;;;;;;;;;;;;;;28.53;40.44;95489.81;5155319;27;1003;-56
2023/08/13 10:59:56;;;;;;;;;;;;;;;28.47;39.04;95486.19;5155001;27;1990;-56
2023/08/13 11:02:22;;;;;;;;;;;;;;;28.51;40.18;95473.53;5155223;27;964;-56
2023/08/13 11:04:48;;;;;;;;;;;;;;;28.61;40.70;95475.59;5155057;27;904;-56
2023/08/13 11:07:14;;;;;;;;;;;;;;;28.54;37.24;95486.81;5139902;27;2414;-56
2023/08/13 11:09:42;;;;;;;;;;;;;;;28.62;39.49;95478.03;5134678;28;1427;-56
2023/08/13 11:12:09;;;;;;;;;;;;;;;28.71;37.76;95481.13;5134328;28;1063;-56
2023/08/13 11:14:36;;;;;;;;;;;;;;;28.74;38.64;95475.09;5134517;28;1291;-56
2023/08/13 11:17:02;;;;;;;;;;;;;;;28.56;34.37;95484.63;5134453;28;984;-56
2023/08/13 11:19:28;;;;;;;;;;;;;;;28.70;37.28;95482.19;5134002;28;1909;-55
2023/08/13 11:21:55;;;;;;;;;;;;;;;28.77;38.54;95473.72;5134337;28;953;-55
2023/08/13 11:24:24;;;;;;;;;;;;;;;28.80;34.58;95478.69;5134063;28;1091;-56
2023/08/13 11:26:50;;;;;;;;;;;;;;;28.86;36.14;95477.63;5134442;28;1047;-56
2023/08/13 11:29:20;;;;;;;;;;;;;;;28.98;36.60;95472.69;5133933;28;1040;-56
2023/08/13 11:31:47;;;;;;;;;;;;;;;28.94;34.90;95471.59;5134351;28;977;-55
2023/08/13 11:34:14;;;;;;;;;;;;;;;28.90;35.54;95466.91;5134327;28;1052;-56
2023/08/13 11:36:41;;;;;;;;;;;;;;;29.15;37.14;95458.75;5134113;28;1348;-56
2023/08/13 11:39:07;;;;;;;;;;;;;;;29.29;37.21;95466.47;5133072;27;2511;-55
2023/08/13 11:41:33;;;;;;;;;;;;;;;29.28;38.23;95464.84;5133891;28;2022;-55
2023/08/13 11:43:59;;;;;;;;;;;;;;;29.32;36.19;95464.00;5134033;28;1253;-56
2023/08/13 11:46:25;;;;;;;;;;;;;;;29.31;37.00;95453.25;5099031;28;1617;-56
2023/08/13 11:48:54;;;;;;;;;;;;;;;28.81;38.40;95450.06;5133061;28;2403;-56
2023/08/13 11:51:25;;;;;;;;;;;;;;;28.77;37.59;95447.03;5134128;28;1039;-55
2023/08/13 11:53:51;;;;;;;;;;;;;;;28.82;39.69;95443.47;5137788;27;1086;-56
2023/08/13 11:56:18;;;;;;;;;;;;;;;28.81;40.55;95444.56;5137898;27;1067;-55
2023/08/13 11:58:44;;;;;;;;;;;;;;;28.57;40.85;95445.03;5126091;27;2907;-56
2023/08/13 12:01:11;;;;;;;;;;;;;;;28.26;40.65;95449.50;5117365;28;966;-56
2023/08/13 12:03:39;;;;;;;;;;;;;;;28.06;41.81;95435.63;5099219;28;942;-57
2023/08/13 12:06:05;;;;;;;;;;;;;;;28.05;41.08;95440.28;5125755;27;2907;-56
2023/08/13 12:08:32;;;;;;;;;;;;;;;27.94;42.66;95427.56;5137386;27;1564;-56
2023/08/13 12:10:58;;;;;;;;;;;;;;;27.83;41.57;95424.72;5137742;27;981;-56
2023/08/13 12:13:25;;;;;;;;;;;;;;;27.69;42.47;95422.69;5151576;27;2477;-55
2023/08/13 12:15:51;;;;;;;;;;;;;;;27.80;41.63;95419.75;5158369;27;2065;-55
2023/08/13 12:18:18;;;;;;;;;;;;;;;27.76;43.12;95421.38;5157883;27;1913;-56
2023/08/13 12:20:44;;;;;;;;;;;;;;;27.74;44.75;95423.56;5124206;27;1310;-56
2023/08/13 12:23:10;;;;;;;;;;;;;;;27.72;44.09;95420.25;5128215;27;2508;-56
2023/08/13 12:25:36;;;;;;;;;;;;;;;27.61;43.06;95424.81;5158163;27;1985;-56
2023/08/13 12:28:02;;;;;;;;;;;;;;;27.53;44.51;95416.25;5139533;27;1059;-55
2023/08/13 12:30:28;;;;;;;;;;;;;;;27.45;44.75;95415.63;5157655;27;1016;-56
2023/08/13 12:32:55;;;;;;;;;;;;;;;27.45;44.28;95409.28;5158106;27;1047;-56
2023/08/13 12:35:21;;;;;;;;;;;;;;;27.39;42.90;95415.84;5157634;27;1043;-56
2023/08/13 12:37:48;;;;;;;;;;;;;;;27.44;43.58;95413.16;5139156;27;1909;-57
2023/08/13 12:40:15;;;;;;;;;;;;;;;27.59;43.94;95415.19;5157549;27;1039;-57
2023/08/13 12:42:42;;;;;;;;;;;;;;;27.95;43.42;95408.06;5157825;27;1012;-57
2023/08/13 12:45:08;;;;;;;;;;;;;;;28.29;42.63;95410.47;5139176;27;1067;-57
2023/08/13 12:47:35;;;;;;;;;;;;;;;28.46;42.59;95402.03;5157382;27;2858;-56
2023/08/13 12:50:02;;;;;;;;;;;;;;;28.66;42.69;95403.25;5138467;27;2956;-56
2023/08/13 12:52:28;;;;;;;;;;;;;;;28.66;42.24;95397.75;5123257;27;2945;-56
2023/08/13 12:54:55;;;;;;;;;;;;;;;28.55;41.68;95391.38;5115968;28;1194;-56